createdAt,value
2022-09-26T00:04:24.087Z,9.40
2022-09-26T00:06:55.934Z,7.40
2022-09-26T00:09:26.055Z,12.10
2022-09-26T00:11:54.943Z,9.30
2022-09-26T00:14:26.621Z,8.20
2022-09-26T00:16:55.146Z,8.80
2022-09-26T00:19:23.516Z,9.50
2022-09-26T00:21:51.940Z,7.30
2022-09-26T00:24:20.225Z,7.20
2022-09-26T00:26:48.001Z,7.80
2022-09-26T00:29:16.236Z,7.90
2022-09-26T00:31:47.601Z,9.10
2022-09-26T00:34:18.256Z,9.10
2022-09-26T00:36:46.301Z,12.70
2022-09-26T00:39:16.678Z,8.50
2022-09-26T00:41:45.941Z,7.60
2022-09-26T00:44:56.832Z,7.30
2022-09-26T00:47:27.235Z,8.60
2022-09-26T00:50:04.570Z,8.80
2022-09-26T00:52:45.164Z,7.10
2022-09-26T00:55:18.877Z,6.20
2022-09-26T00:57:53.290Z,9.40
2022-09-26T01:00:21.475Z,8.00
2022-09-26T01:02:52.517Z,8.00
2022-09-26T01:05:23.350Z,7.40
2022-09-26T01:10:21.105Z,6.60
2022-09-26T01:12:49.097Z,9.60
2022-09-26T01:15:17.170Z,9.60
2022-09-26T01:17:45.957Z,7.20
2022-09-26T01:20:36.556Z,11.00
2022-09-26T01:23:42.106Z,7.50
2022-09-26T01:26:12.936Z,10.80
2022-09-26T01:28:42.343Z,8.20
2022-09-26T01:32:16.708Z,9.20
2022-09-26T01:35:07.350Z,8.80
2022-09-26T01:37:49.058Z,8.40
2022-09-26T01:40:45.931Z,10.50
2022-09-26T01:43:34.353Z,9.70
2022-09-26T01:46:26.402Z,7.50
2022-09-26T01:49:02.443Z,9.70
2022-09-26T01:51:41.285Z,8.90
2022-09-26T01:54:17.922Z,7.60
2022-09-26T01:56:50.617Z,7.40
2022-09-26T01:59:29.052Z,8.70
2022-09-26T02:02:06.703Z,10.20
2022-09-26T02:04:41.383Z,7.70
2022-09-26T02:07:16.839Z,8.00
2022-09-26T02:09:52.009Z,11.80
2022-09-26T02:12:26.424Z,10.80
2022-09-26T02:14:58.359Z,10.10
2022-09-26T02:17:31.609Z,11.30
2022-09-26T02:20:05.558Z,8.20
2022-09-26T02:22:35.432Z,11.40
2022-09-26T02:25:04.731Z,7.80
2022-09-26T02:27:33.225Z,7.70
2022-09-26T02:30:01.782Z,5.70
2022-09-26T02:32:32.035Z,7.60
2022-09-26T02:35:01.335Z,8.70
2022-09-26T02:40:01.144Z,8.40
2022-09-26T02:42:36.730Z,7.60
2022-09-26T02:45:27.020Z,8.30
2022-09-26T02:48:08.235Z,8.80
2022-09-26T02:50:48.516Z,7.50
2022-09-26T02:53:38.401Z,7.40
2022-09-26T02:56:46.244Z,7.50
2022-09-26T02:59:26.788Z,9.40
2022-09-26T03:02:06.388Z,7.70
2022-09-26T03:04:34.564Z,9.20
2022-09-26T03:07:07.400Z,7.20
2022-09-26T03:09:37.279Z,7.20
2022-09-26T03:12:08.253Z,6.70
2022-09-26T03:14:42.229Z,14.00
2022-09-26T03:17:10.749Z,9.90
2022-09-26T03:19:45.952Z,8.10
2022-09-26T03:22:16.393Z,9.50
2022-09-26T03:24:46.161Z,7.70
2022-09-26T03:27:16.689Z,7.20
2022-09-26T03:29:46.480Z,6.60
2022-09-26T03:32:19.529Z,7.30
2022-09-26T03:34:47.421Z,9.30
2022-09-26T03:37:16.242Z,9.40
2022-09-26T03:39:44.968Z,9.70
2022-09-26T03:42:24.582Z,9.00
2022-09-26T03:44:53.896Z,10.30
2022-09-26T03:50:15.090Z,10.80
2022-09-26T03:52:43.196Z,10.70
2022-09-26T03:55:11.672Z,12.40
2022-09-26T03:57:39.744Z,12.30
2022-09-26T04:00:17.853Z,13.80
2022-09-26T04:02:46.646Z,22.90
2022-09-26T04:05:23.111Z,27.00
2022-09-26T04:07:51.036Z,28.30
2022-09-26T04:10:19.685Z,12.50
2022-09-26T04:12:47.588Z,13.60
2022-09-26T04:15:16.007Z,16.70
2022-09-26T04:17:44.588Z,16.50
2022-09-26T04:20:12.864Z,18.90
2022-09-26T04:22:42.045Z,24.20
2022-09-26T04:25:10.542Z,20.70
2022-09-26T04:27:39.035Z,18.00
2022-09-26T04:30:07.554Z,14.80
2022-09-26T04:32:39.749Z,16.20
2022-09-26T04:35:27.296Z,19.30
2022-09-26T04:37:55.267Z,10.30
2022-09-26T04:40:23.400Z,12.70
2022-09-26T04:43:11.407Z,9.20
2022-09-26T04:45:43.379Z,9.60
2022-09-26T04:48:11.798Z,9.90
2022-09-26T04:50:46.132Z,11.30
2022-09-26T04:53:14.106Z,12.50
2022-09-26T04:56:10.340Z,11.50
2022-09-26T04:58:38.885Z,8.50
2022-09-26T05:01:09.891Z,11.60
2022-09-26T05:03:49.700Z,9.90
2022-09-26T05:06:18.941Z,11.90
2022-09-26T05:08:47.789Z,11.80
2022-09-26T05:11:18.635Z,11.50
2022-09-26T05:13:51.250Z,10.70
2022-09-26T05:16:21.699Z,9.00
2022-09-26T05:18:52.098Z,14.00
2022-09-26T05:21:24.279Z,11.10
2022-09-26T05:24:11.120Z,19.20
2022-09-26T05:26:46.558Z,16.40
2022-09-26T05:29:26.309Z,13.00
2022-09-26T05:31:59.993Z,16.20
2022-09-26T05:34:28.661Z,11.00
2022-09-26T05:36:56.791Z,10.30
2022-09-26T05:39:43.416Z,12.60
2022-09-26T05:42:15.555Z,9.30
2022-09-26T05:44:44.080Z,12.20
2022-09-26T05:47:13.247Z,15.40
2022-09-26T05:49:41.823Z,11.60
2022-09-26T05:52:12.220Z,13.30
2022-09-26T05:54:40.345Z,12.80
2022-09-26T05:57:28.376Z,10.10
2022-09-26T05:59:58.263Z,10.80
2022-09-26T06:02:26.326Z,11.40
2022-09-26T06:05:06.283Z,14.30
2022-09-26T06:07:53.307Z,10.70
2022-09-26T06:10:40.361Z,13.20
2022-09-26T06:13:08.387Z,12.50
2022-09-26T06:15:55.249Z,10.00
2022-09-26T06:18:23.269Z,9.90
2022-09-26T06:20:51.445Z,15.20
2022-09-26T06:23:19.641Z,12.20
2022-09-26T06:25:49.223Z,13.30
2022-09-26T06:28:18.543Z,13.90
2022-09-26T06:30:46.899Z,11.90
2022-09-26T06:33:27.638Z,11.80
2022-09-26T06:36:18.171Z,12.20
2022-09-26T06:38:46.667Z,15.30
2022-09-26T06:41:17.912Z,18.20
2022-09-26T06:43:47.747Z,20.80
2022-09-26T06:46:47.507Z,20.40
2022-09-26T06:49:19.899Z,17.10
2022-09-26T06:51:50.012Z,27.30
2022-09-26T06:54:19.003Z,17.80
2022-09-26T06:56:47.839Z,23.80
2022-09-26T06:59:17.531Z,18.70
2022-09-26T07:01:53.280Z,21.50
2022-09-26T07:04:40.923Z,18.50
2022-09-26T07:07:20.825Z,19.90
2022-09-26T07:09:48.999Z,14.40
2022-09-26T07:12:40.887Z,18.80
2022-09-26T07:15:09.313Z,16.80
2022-09-26T07:17:37.481Z,21.20
2022-09-26T07:20:37.876Z,21.50
2022-09-26T07:23:24.412Z,18.80
2022-09-26T07:25:53.168Z,17.50
2022-09-26T07:28:21.374Z,16.40
2022-09-26T07:30:50.978Z,14.80
2022-09-26T07:33:40.348Z,19.50
2022-09-26T07:36:12.730Z,16.70
2022-09-26T07:38:42.851Z,17.00
2022-09-26T07:41:11.439Z,15.60
2022-09-26T07:44:34.633Z,14.60
2022-09-26T07:46:50.245Z,17.10
2022-09-26T07:49:37.599Z,19.50
2022-09-26T07:52:32.232Z,10.50
2022-09-26T07:55:28.230Z,13.10
2022-09-26T07:58:02.114Z,11.00
2022-09-26T08:00:56.297Z,10.30
2022-09-26T08:03:48.162Z,13.70
2022-09-26T08:06:38.725Z,12.80
2022-09-26T08:09:08.117Z,9.80
2022-09-26T08:11:56.065Z,9.60
2022-09-26T08:14:42.978Z,11.80
2022-09-26T08:17:28.454Z,10.70
2022-09-26T08:19:56.991Z,15.50
2022-09-26T08:22:25.016Z,10.90
2022-09-26T08:24:55.533Z,17.10
2022-09-26T08:27:44.287Z,11.30
2022-09-26T08:30:13.679Z,11.90
2022-09-26T08:32:42.125Z,7.20
2022-09-26T08:35:14.911Z,8.20
2022-09-26T08:38:07.395Z,10.60
2022-09-26T08:41:13.133Z,10.70
2022-09-26T08:43:56.484Z,13.60
2022-09-26T08:47:02.866Z,13.80
2022-09-26T08:50:20.927Z,14.10
2022-09-26T08:53:05.757Z,10.10
2022-09-26T08:55:44.565Z,11.80
2022-09-26T08:58:28.934Z,11.70
2022-09-26T09:01:05.234Z,12.70
2022-09-26T09:03:53.789Z,15.20
2022-09-26T09:06:21.836Z,12.50
2022-09-26T09:08:56.436Z,14.60
2022-09-26T09:12:09.259Z,9.80
2022-09-26T09:15:20.428Z,11.80
2022-09-26T09:18:45.108Z,10.90
2022-09-26T09:22:14.900Z,14.40
2022-09-26T09:25:04.945Z,8.40
2022-09-26T09:28:07.917Z,8.20
2022-09-26T09:30:38.567Z,8.60
2022-09-26T09:33:29.696Z,9.30
2022-09-26T09:36:21.197Z,9.20
2022-09-26T09:39:41.431Z,10.10
2022-09-26T09:42:26.132Z,9.90
2022-09-26T09:45:22.387Z,8.90
2022-09-26T09:47:50.516Z,10.70
2022-09-26T09:50:42.688Z,8.60
2022-09-26T09:53:24.797Z,12.40
2022-09-26T09:56:22.353Z,13.80
2022-09-26T09:59:17.557Z,12.30
2022-09-26T10:02:48.177Z,12.20
2022-09-26T10:05:45.042Z,9.40
2022-09-26T10:08:28.668Z,10.40
2022-09-26T10:11:23.114Z,10.60
2022-09-26T10:14:03.411Z,11.90
2022-09-26T10:17:09.651Z,8.70
2022-09-26T10:20:53.809Z,9.30
2022-09-26T10:23:27.689Z,8.10
2022-09-26T10:26:03.496Z,9.40
2022-09-26T10:28:37.700Z,12.50
2022-09-26T10:31:11.278Z,10.30
2022-09-26T10:34:04.253Z,8.30
2022-09-26T10:36:38.101Z,8.70
2022-09-26T10:39:34.306Z,7.00
2022-09-26T10:42:04.255Z,9.60
2022-09-26T10:44:34.852Z,9.10
2022-09-26T10:47:08.738Z,8.90
2022-09-26T10:49:59.229Z,11.10
2022-09-26T10:53:09.635Z,8.10
2022-09-26T10:56:06.566Z,8.60
2022-09-26T10:58:41.973Z,8.30
2022-09-26T11:01:21.186Z,7.70
2022-09-26T11:03:50.468Z,8.00
2022-09-26T11:06:34.591Z,13.30
2022-09-26T11:09:18.243Z,7.00
2022-09-26T11:11:48.004Z,7.90
2022-09-26T11:14:28.460Z,7.60
2022-09-26T11:17:03.634Z,9.80
2022-09-26T11:19:42.757Z,10.20
2022-09-26T11:22:16.368Z,9.50
2022-09-26T11:25:11.778Z,10.60
2022-09-26T11:27:46.838Z,6.40
2022-09-26T11:30:21.750Z,5.80
2022-09-26T11:33:12.268Z,7.60
2022-09-26T11:36:18.191Z,6.80
2022-09-26T11:38:50.896Z,9.20
2022-09-26T11:41:36.583Z,9.50
2022-09-26T11:44:17.572Z,6.40
2022-09-26T11:47:10.084Z,6.50
2022-09-26T11:49:59.423Z,6.30
2022-09-26T11:53:19.800Z,7.70
2022-09-26T11:56:10.250Z,3.80
2022-09-26T11:58:59.334Z,4.70
2022-09-26T12:01:39.109Z,6.60
2022-09-26T12:04:34.661Z,8.30
2022-09-26T12:07:20.834Z,6.90
2022-09-26T12:10:26.446Z,8.90
2022-09-26T12:13:03.461Z,9.30
2022-09-26T12:15:44.057Z,6.40
2022-09-26T12:18:22.525Z,6.50
2022-09-26T12:20:50.494Z,8.10
2022-09-26T12:23:36.731Z,7.40
2022-09-26T12:26:17.849Z,11.50
2022-09-26T12:29:00.194Z,7.00
2022-09-26T12:31:48.977Z,9.90
2022-09-26T12:34:28.952Z,11.40
2022-09-26T12:37:19.013Z,8.40
2022-09-26T12:40:09.461Z,8.60
2022-09-26T12:48:00.534Z,7.90
2022-09-26T12:51:16.502Z,8.40
2022-09-26T12:54:09.200Z,6.40
2022-09-26T12:56:59.067Z,6.30
2022-09-26T12:59:52.840Z,7.60
2022-09-26T13:02:23.708Z,6.40
2022-09-26T13:05:16.941Z,7.50
2022-09-26T13:07:48.070Z,9.50
2022-09-26T13:10:35.017Z,6.50
2022-09-26T13:13:11.695Z,7.50
2022-09-26T13:16:13.429Z,8.30
2022-09-26T13:18:47.568Z,7.70
2022-09-26T13:21:24.913Z,6.40
2022-09-26T13:24:00.375Z,18.50
2022-09-26T13:26:43.908Z,91.60
2022-09-26T13:29:27.131Z,18.20
2022-09-26T13:32:22.956Z,9.90
2022-09-26T13:35:02.086Z,11.20
2022-09-26T13:37:41.418Z,19.90
2022-09-26T13:40:37.130Z,14.00
2022-09-26T13:43:35.522Z,8.80
2022-09-26T13:46:31.926Z,16.60
2022-09-26T13:49:27.952Z,15.50
2022-09-26T13:52:34.453Z,19.00
2022-09-26T13:55:20.029Z,11.30
2022-09-26T13:57:49.962Z,9.60
2022-09-26T14:00:17.918Z,11.10
2022-09-26T14:03:11.128Z,17.70
2022-09-26T14:05:42.225Z,25.10
2022-09-26T14:08:43.870Z,21.30
2022-09-26T14:11:32.636Z,18.90
2022-09-26T14:14:26.510Z,23.80
2022-09-26T14:17:03.049Z,48.30
2022-09-26T14:19:41.359Z,33.40
2022-09-26T14:22:21.548Z,24.50
2022-09-26T14:24:53.815Z,16.30
2022-09-26T14:27:42.241Z,11.30
2022-09-26T14:30:30.311Z,16.00
2022-09-26T14:33:02.672Z,10.20
2022-09-26T14:35:33.822Z,11.70
2022-09-26T14:38:17.306Z,10.50
2022-09-26T14:40:57.999Z,7.50
2022-09-26T14:43:30.420Z,11.00
2022-09-26T14:46:05.914Z,13.40
2022-09-26T14:48:40.303Z,11.70
2022-09-26T14:51:11.290Z,21.60
2022-09-26T14:53:53.239Z,19.60
2022-09-26T14:56:30.064Z,13.30
2022-09-26T14:59:35.632Z,14.80
2022-09-26T15:02:31.719Z,14.80
2022-09-26T15:05:11.587Z,20.50
2022-09-26T15:07:49.229Z,14.30
2022-09-26T15:10:21.968Z,9.80
2022-09-26T15:13:11.024Z,10.50
2022-09-26T15:15:44.744Z,10.10
2022-09-26T15:18:38.918Z,12.90
2022-09-26T15:21:18.861Z,14.10
2022-09-26T15:23:53.264Z,14.60
2022-09-26T15:26:28.525Z,16.20
2022-09-26T15:28:58.406Z,21.50
2022-09-26T15:31:36.876Z,22.40
2022-09-26T15:34:19.239Z,21.30
2022-09-26T15:36:56.623Z,24.90
2022-09-26T15:39:31.060Z,15.20
2022-09-26T15:42:20.535Z,30.50
2022-09-26T15:44:59.665Z,18.70
2022-09-26T15:47:31.736Z,9.70
2022-09-26T15:50:10.786Z,22.60
2022-09-26T15:52:51.288Z,15.20
2022-09-26T15:55:27.095Z,18.60
2022-09-26T15:57:59.270Z,14.50
2022-09-26T16:00:34.039Z,18.00
2022-09-26T16:03:19.986Z,16.90
2022-09-26T16:05:49.464Z,13.30
2022-09-26T16:08:24.635Z,13.90
2022-09-26T16:10:57.424Z,13.70
2022-09-26T16:13:30.621Z,17.90
2022-09-26T16:16:21.618Z,15.20
2022-09-26T16:18:56.069Z,15.90
2022-09-26T16:21:27.517Z,12.70
2022-09-26T16:23:58.274Z,15.10
2022-09-26T16:29:08.501Z,16.10
2022-09-26T16:31:48.933Z,15.50
2022-09-26T16:34:23.179Z,9.90
2022-09-26T16:36:51.331Z,13.60
2022-09-26T16:39:31.054Z,15.20
2022-09-26T16:42:06.096Z,14.80
2022-09-26T16:44:41.175Z,14.70
2022-09-26T16:47:29.971Z,15.70
2022-09-26T16:50:30.486Z,19.00
2022-09-26T16:52:59.562Z,33.60
2022-09-26T16:55:27.928Z,24.40
2022-09-26T16:58:04.347Z,20.10
2022-09-26T17:00:53.524Z,25.70
2022-09-26T17:03:31.318Z,27.10
2022-09-26T17:06:00.417Z,30.00
2022-09-26T17:08:28.784Z,25.90
2022-09-26T17:11:02.831Z,34.30
2022-09-26T17:13:34.074Z,35.80
2022-09-26T17:16:03.791Z,26.90
2022-09-26T17:21:02.575Z,29.30
2022-09-26T17:23:40.471Z,31.60
2022-09-26T17:26:23.936Z,34.00
2022-09-26T17:28:53.484Z,47.20
2022-09-26T17:31:21.602Z,45.20
2022-09-26T17:33:53.478Z,66.90
2022-09-26T17:36:24.681Z,60.80
2022-09-26T17:38:53.709Z,55.60
2022-09-26T17:41:23.166Z,45.40
2022-09-26T17:44:00.508Z,38.40
2022-09-26T17:46:29.079Z,42.60
2022-09-26T17:48:57.310Z,47.20
2022-09-26T17:51:26.000Z,45.10
2022-09-26T17:53:57.595Z,46.60
2022-09-26T17:56:26.656Z,42.10
2022-09-26T17:58:57.036Z,46.00
2022-09-26T18:01:27.052Z,45.00
2022-09-26T18:04:00.040Z,38.70
2022-09-26T18:06:32.841Z,35.00
2022-09-26T18:09:07.552Z,32.40
2022-09-26T18:11:37.412Z,38.60
2022-09-26T18:14:06.909Z,36.50
2022-09-26T18:16:35.371Z,43.90
2022-09-26T18:19:07.409Z,57.40
2022-09-26T18:21:36.446Z,109.30
2022-09-26T18:24:10.416Z,138.60
2022-09-26T18:26:47.436Z,121.30
2022-09-26T18:29:30.047Z,107.20
2022-09-26T18:31:59.539Z,89.30
2022-09-26T18:34:27.921Z,85.60
2022-09-26T18:37:00.620Z,100.70
2022-09-26T18:39:30.615Z,85.80
2022-09-26T18:42:02.607Z,78.20
2022-09-26T18:44:35.309Z,78.10
2022-09-26T18:47:16.334Z,52.50
2022-09-26T18:49:46.952Z,53.90
2022-09-26T18:52:17.906Z,48.20
2022-09-26T18:54:46.086Z,56.60
2022-09-26T18:57:49.676Z,43.60
2022-09-26T19:00:17.776Z,51.20
2022-09-26T19:02:45.931Z,50.70
2022-09-26T19:05:16.652Z,54.90
2022-09-26T19:10:17.618Z,65.60
2022-09-26T19:12:45.882Z,59.10
2022-09-26T19:15:15.837Z,49.30
2022-09-26T19:17:43.665Z,40.90
2022-09-26T19:20:11.642Z,41.20
2022-09-26T19:22:39.624Z,45.60
2022-09-26T19:25:10.091Z,40.40
2022-09-26T19:27:50.439Z,43.10
2022-09-26T19:30:24.599Z,42.90
2022-09-26T19:32:54.447Z,50.80
2022-09-26T19:35:32.097Z,45.90
2022-09-26T19:38:02.143Z,79.20
2022-09-26T19:40:30.290Z,82.60
2022-09-26T19:42:58.982Z,84.80
2022-09-26T19:45:27.114Z,79.70
2022-09-26T19:47:56.355Z,70.70
2022-09-26T19:50:26.581Z,74.90
2022-09-26T19:52:58.543Z,62.10
2022-09-26T19:55:30.479Z,56.60
2022-09-26T19:58:21.813Z,68.60
2022-09-26T20:00:56.544Z,73.50
2022-09-26T20:03:40.023Z,73.80
2022-09-26T20:06:23.636Z,81.90
2022-09-26T20:08:59.068Z,74.20
2022-09-26T20:11:29.685Z,64.90
2022-09-26T20:14:16.555Z,68.00
2022-09-26T20:16:44.797Z,71.40
2022-09-26T20:19:21.813Z,61.00
2022-09-26T20:21:49.924Z,57.20
2022-09-26T20:24:19.161Z,59.00
2022-09-26T20:26:48.288Z,60.10
2022-09-26T20:29:17.318Z,62.60
2022-09-26T20:31:47.627Z,58.30
2022-09-26T20:34:17.169Z,55.50
2022-09-26T20:36:48.992Z,49.90
2022-09-26T20:39:24.044Z,50.00
2022-09-26T20:41:52.877Z,52.50
2022-09-26T20:44:28.025Z,55.40
2022-09-26T20:47:04.769Z,52.10
2022-09-26T20:49:43.508Z,49.60
2022-09-26T20:52:20.818Z,53.60
2022-09-26T20:54:49.203Z,51.20
2022-09-26T20:57:17.730Z,57.00
2022-09-26T20:59:48.454Z,54.30
2022-09-26T21:02:28.913Z,48.00
2022-09-26T21:05:00.332Z,54.10
2022-09-26T21:07:31.311Z,44.30
2022-09-26T21:12:27.323Z,42.80
2022-09-26T21:14:55.288Z,39.00
2022-09-26T21:17:28.149Z,44.80
2022-09-26T21:19:56.550Z,47.70
2022-09-26T21:22:43.564Z,43.20
2022-09-26T21:25:16.039Z,45.60
2022-09-26T21:27:51.180Z,39.00
2022-09-26T21:30:20.119Z,42.40
2022-09-26T21:32:51.625Z,39.10
2022-09-26T21:35:20.954Z,44.40
2022-09-26T21:37:54.882Z,36.60
2022-09-26T21:40:26.350Z,42.00
2022-09-26T21:43:04.282Z,43.00
2022-09-26T21:45:32.861Z,42.20
2022-09-26T21:48:01.034Z,40.40
2022-09-26T21:50:29.550Z,38.90
2022-09-26T21:53:05.368Z,39.50
2022-09-26T21:55:37.298Z,38.20
2022-09-26T21:58:09.706Z,36.80
2022-09-26T22:00:37.880Z,39.20
2022-09-26T22:03:07.124Z,41.10
2022-09-26T22:05:35.252Z,41.60
2022-09-26T22:08:03.878Z,37.60
2022-09-26T22:10:32.114Z,40.70
2022-09-26T22:12:59.947Z,39.30
2022-09-26T22:15:27.858Z,39.50
2022-09-26T22:17:55.815Z,43.10
2022-09-26T22:20:24.086Z,52.30
2022-09-26T22:22:52.157Z,45.80
2022-09-26T22:25:20.154Z,43.90
2022-09-26T22:27:48.193Z,38.50
2022-09-26T22:30:16.263Z,35.20
2022-09-26T22:32:44.424Z,37.30
2022-09-26T22:35:12.305Z,44.00
2022-09-26T22:37:40.325Z,47.00
2022-09-26T22:40:09.059Z,43.90
2022-09-26T22:42:37.465Z,41.10
2022-09-26T22:45:06.022Z,45.60
2022-09-26T22:47:34.400Z,41.10
2022-09-26T22:50:02.577Z,39.00
2022-09-26T22:52:30.647Z,41.40
2022-09-26T22:54:58.723Z,41.90
2022-09-26T22:57:26.810Z,40.60
2022-09-26T22:59:54.674Z,39.20
2022-09-26T23:02:22.623Z,39.90
2022-09-26T23:04:50.963Z,45.20
2022-09-26T23:07:20.095Z,42.60
2022-09-26T23:09:48.059Z,41.40
2022-09-26T23:12:16.114Z,41.60
2022-09-26T23:14:44.305Z,43.20
2022-09-26T23:17:12.618Z,40.30
2022-09-26T23:19:41.442Z,38.50
2022-09-26T23:22:09.336Z,32.50
2022-09-26T23:24:37.721Z,31.50
2022-09-26T23:27:05.590Z,40.00
2022-09-26T23:29:33.551Z,34.10
2022-09-26T23:32:01.649Z,33.70
2022-09-26T23:34:29.794Z,34.80
2022-09-26T23:36:57.788Z,37.00
2022-09-26T23:39:25.729Z,40.00
2022-09-26T23:41:53.980Z,40.00
2022-09-26T23:44:22.174Z,44.30
2022-09-26T23:46:50.102Z,43.70
2022-09-26T23:49:18.117Z,46.20
2022-09-26T23:51:47.825Z,46.70
2022-09-26T23:54:15.899Z,47.70
2022-09-26T23:56:43.969Z,46.90
2022-09-26T23:59:11.888Z,41.70
